sensor_id;sensor_type;location;lat;lon;timestamp;P1;durP1;ratioP1;P2;durP2;ratioP2
70975;SDS011;58635;51.198;6.010;2023-05-07T00:00:03;10.05;;;7.75;;
70975;SDS011;58635;51.198;6.010;2023-05-07T00:02:32;8.90;;;8.05;;
70975;SDS011;58635;51.198;6.010;2023-05-07T00:04:58;10.93;;;8.38;;
70975;SDS011;58635;51.198;6.010;2023-05-07T00:07:23;11.05;;;8.15;;
70975;SDS011;58635;51.198;6.010;2023-05-07T00:09:49;10.82;;;8.38;;
70975;SDS011;58635;51.198;6.010;2023-05-07T00:12:15;9.57;;;7.90;;
70975;SDS011;58635;51.198;6.010;2023-05-07T00:14:40;9.68;;;8.43;;
70975;SDS011;58635;51.198;6.010;2023-05-07T00:17:06;12.80;;;9.63;;
70975;SDS011;58635;51.198;6.010;2023-05-07T00:19:31;10.57;;;8.10;;
70975;SDS011;58635;51.198;6.010;2023-05-07T00:21:57;10.75;;;8.43;;
70975;SDS011;58635;51.198;6.010;2023-05-07T00:24:23;10.23;;;9.23;;
70975;SDS011;58635;51.198;6.010;2023-05-07T00:26:49;11.23;;;10.02;;
70975;SDS011;58635;51.198;6.010;2023-05-07T00:29:15;12.15;;;8.85;;
70975;SDS011;58635;51.198;6.010;2023-05-07T00:31:40;13.40;;;9.63;;
70975;SDS011;58635;51.198;6.010;2023-05-07T00:34:06;11.23;;;10.02;;
70975;SDS011;58635;51.198;6.010;2023-05-07T00:36:31;11.77;;;10.45;;
70975;SDS011;58635;51.198;6.010;2023-05-07T00:38:57;11.57;;;9.82;;
70975;SDS011;58635;51.198;6.010;2023-05-07T00:41:25;10.70;;;9.70;;
70975;SDS011;58635;51.198;6.010;2023-05-07T00:43:50;12.23;;;10.02;;
70975;SDS011;58635;51.198;6.010;2023-05-07T00:46:16;9.85;;;8.85;;
70975;SDS011;58635;51.198;6.010;2023-05-07T00:48:45;11.48;;;9.82;;
70975;SDS011;58635;51.198;6.010;2023-05-07T00:51:10;9.45;;;8.52;;
70975;SDS011;58635;51.198;6.010;2023-05-07T00:53:36;10.98;;;9.40;;
70975;SDS011;58635;51.198;6.010;2023-05-07T00:56:02;10.50;;;8.95;;
70975;SDS011;58635;51.198;6.010;2023-05-07T00:58:27;10.35;;;8.32;;
70975;SDS011;58635;51.198;6.010;2023-05-07T01:00:53;11.18;;;8.98;;
70975;SDS011;58635;51.198;6.010;2023-05-07T01:03:18;10.85;;;8.50;;
70975;SDS011;58635;51.198;6.010;2023-05-07T01:05:44;10.38;;;8.75;;
70975;SDS011;58635;51.198;6.010;2023-05-07T01:08:12;12.60;;;9.57;;
70975;SDS011;58635;51.198;6.010;2023-05-07T01:10:38;10.48;;;8.93;;
70975;SDS011;58635;51.198;6.010;2023-05-07T01:13:07;11.70;;;10.27;;
70975;SDS011;58635;51.198;6.010;2023-05-07T01:15:35;12.50;;;11.13;;
70975;SDS011;58635;51.198;6.010;2023-05-07T01:18:00;12.07;;;10.80;;
70975;SDS011;58635;51.198;6.010;2023-05-07T01:20:26;12.93;;;11.60;;
70975;SDS011;58635;51.198;6.010;2023-05-07T01:22:53;10.35;;;9.15;;
70975;SDS011;58635;51.198;6.010;2023-05-07T01:25:18;10.60;;;9.27;;
70975;SDS011;58635;51.198;6.010;2023-05-07T01:27:44;10.40;;;9.40;;
70975;SDS011;58635;51.198;6.010;2023-05-07T01:30:10;11.25;;;9.30;;
70975;SDS011;58635;51.198;6.010;2023-05-07T01:32:36;12.13;;;10.15;;
70975;SDS011;58635;51.198;6.010;2023-05-07T01:35:14;13.23;;;10.52;;
70975;SDS011;58635;51.198;6.010;2023-05-07T01:37:43;12.40;;;10.18;;
70975;SDS011;58635;51.198;6.010;2023-05-07T01:40:10;11.63;;;10.43;;
70975;SDS011;58635;51.198;6.010;2023-05-07T01:42:35;10.48;;;9.38;;
70975;SDS011;58635;51.198;6.010;2023-05-07T01:45:01;11.57;;;10.38;;
70975;SDS011;58635;51.198;6.010;2023-05-07T01:47:27;11.90;;;10.48;;
70975;SDS011;58635;51.198;6.010;2023-05-07T01:49:54;12.45;;;9.90;;
70975;SDS011;58635;51.198;6.010;2023-05-07T01:52:20;12.77;;;11.40;;
70975;SDS011;58635;51.198;6.010;2023-05-07T01:54:45;15.75;;;11.20;;
70975;SDS011;58635;51.198;6.010;2023-05-07T01:57:11;10.85;;;9.73;;
70975;SDS011;58635;51.198;6.010;2023-05-07T01:59:36;12.48;;;10.80;;
70975;SDS011;58635;51.198;6.010;2023-05-07T02:02:01;12.43;;;11.18;;
70975;SDS011;58635;51.198;6.010;2023-05-07T02:04:27;11.50;;;10.30;;
70975;SDS011;58635;51.198;6.010;2023-05-07T02:06:52;12.30;;;9.35;;
70975;SDS011;58635;51.198;6.010;2023-05-07T02:09:18;12.27;;;10.95;;
70975;SDS011;58635;51.198;6.010;2023-05-07T02:11:44;13.63;;;11.23;;
70975;SDS011;58635;51.198;6.010;2023-05-07T02:14:09;14.50;;;11.32;;
70975;SDS011;58635;51.198;6.010;2023-05-07T02:16:35;12.15;;;10.88;;
70975;SDS011;58635;51.198;6.010;2023-05-07T02:19:00;11.50;;;10.30;;
70975;SDS011;58635;51.198;6.010;2023-05-07T02:21:26;13.05;;;11.13;;
70975;SDS011;58635;51.198;6.010;2023-05-07T02:23:51;12.73;;;9.75;;
70975;SDS011;58635;51.198;6.010;2023-05-07T02:26:18;13.43;;;9.85;;
70975;SDS011;58635;51.198;6.010;2023-05-07T02:28:43;13.85;;;11.63;;
70975;SDS011;58635;51.198;6.010;2023-05-07T02:31:09;13.63;;;11.63;;
70975;SDS011;58635;51.198;6.010;2023-05-07T02:33:34;12.60;;;11.30;;
70975;SDS011;58635;51.198;6.010;2023-05-07T02:36:07;12.52;;;11.27;;
70975;SDS011;58635;51.198;6.010;2023-05-07T02:38:33;14.75;;;12.23;;
70975;SDS011;58635;51.198;6.010;2023-05-07T02:40:59;12.70;;;10.90;;
70975;SDS011;58635;51.198;6.010;2023-05-07T02:43:24;12.52;;;10.02;;
70975;SDS011;58635;51.198;6.010;2023-05-07T02:45:59;11.32;;;10.13;;
70975;SDS011;58635;51.198;6.010;2023-05-07T02:48:26;12.73;;;10.00;;
70975;SDS011;58635;51.198;6.010;2023-05-07T02:50:52;11.15;;;9.95;;
70975;SDS011;58635;51.198;6.010;2023-05-07T02:53:17;12.18;;;9.95;;
70975;SDS011;58635;51.198;6.010;2023-05-07T02:55:42;12.75;;;10.38;;
70975;SDS011;58635;51.198;6.010;2023-05-07T02:58:08;13.95;;;11.55;;
70975;SDS011;58635;51.198;6.010;2023-05-07T03:00:34;12.32;;;11.02;;
70975;SDS011;58635;51.198;6.010;2023-05-07T03:02:59;13.10;;;11.57;;
70975;SDS011;58635;51.198;6.010;2023-05-07T03:05:25;11.35;;;10.02;;
70975;SDS011;58635;51.198;6.010;2023-05-07T03:07:50;10.95;;;9.85;;
70975;SDS011;58635;51.198;6.010;2023-05-07T03:10:15;13.38;;;11.45;;
70975;SDS011;58635;51.198;6.010;2023-05-07T03:12:41;14.57;;;12.32;;
70975;SDS011;58635;51.198;6.010;2023-05-07T03:15:06;12.00;;;10.10;;
70975;SDS011;58635;51.198;6.010;2023-05-07T03:17:33;11.05;;;9.98;;
70975;SDS011;58635;51.198;6.010;2023-05-07T03:19:58;12.43;;;10.45;;
70975;SDS011;58635;51.198;6.010;2023-05-07T03:22:23;12.15;;;9.85;;
70975;SDS011;58635;51.198;6.010;2023-05-07T03:24:49;11.10;;;8.90;;
70975;SDS011;58635;51.198;6.010;2023-05-07T03:27:14;10.73;;;9.63;;
70975;SDS011;58635;51.198;6.010;2023-05-07T03:29:40;13.30;;;11.35;;
70975;SDS011;58635;51.198;6.010;2023-05-07T03:32:05;13.90;;;10.32;;
70975;SDS011;58635;51.198;6.010;2023-05-07T03:34:31;10.68;;;9.25;;
70975;SDS011;58635;51.198;6.010;2023-05-07T03:36:56;12.30;;;9.95;;
70975;SDS011;58635;51.198;6.010;2023-05-07T03:39:21;11.20;;;9.90;;
70975;SDS011;58635;51.198;6.010;2023-05-07T03:41:47;11.85;;;10.48;;
70975;SDS011;58635;51.198;6.010;2023-05-07T03:44:12;11.93;;;10.68;;
70975;SDS011;58635;51.198;6.010;2023-05-07T03:46:38;13.15;;;11.15;;
70975;SDS011;58635;51.198;6.010;2023-05-07T03:49:03;14.07;;;10.65;;
70975;SDS011;58635;51.198;6.010;2023-05-07T03:51:28;13.27;;;11.15;;
70975;SDS011;58635;51.198;6.010;2023-05-07T03:53:54;11.82;;;10.02;;
70975;SDS011;58635;51.198;6.010;2023-05-07T03:56:19;13.65;;;10.75;;
70975;SDS011;58635;51.198;6.010;2023-05-07T03:58:45;14.52;;;10.07;;
70975;SDS011;58635;51.198;6.010;2023-05-07T04:01:12;12.10;;;10.85;;
70975;SDS011;58635;51.198;6.010;2023-05-07T04:03:37;11.40;;;9.65;;
70975;SDS011;58635;51.198;6.010;2023-05-07T04:06:02;10.75;;;9.65;;
70975;SDS011;58635;51.198;6.010;2023-05-07T04:08:28;11.30;;;9.50;;
70975;SDS011;58635;51.198;6.010;2023-05-07T04:10:57;11.50;;;9.90;;
70975;SDS011;58635;51.198;6.010;2023-05-07T04:13:23;11.85;;;9.32;;
70975;SDS011;58635;51.198;6.010;2023-05-07T04:15:49;11.75;;;10.05;;
70975;SDS011;58635;51.198;6.010;2023-05-07T04:18:15;11.32;;;9.80;;
70975;SDS011;58635;51.198;6.010;2023-05-07T04:20:40;10.48;;;9.25;;
70975;SDS011;58635;51.198;6.010;2023-05-07T04:23:06;13.02;;;9.68;;
70975;SDS011;58635;51.198;6.010;2023-05-07T04:25:32;12.10;;;9.50;;
70975;SDS011;58635;51.198;6.010;2023-05-07T04:27:58;11.75;;;9.23;;
70975;SDS011;58635;51.198;6.010;2023-05-07T04:30:23;14.07;;;10.00;;
70975;SDS011;58635;51.198;6.010;2023-05-07T04:32:50;11.95;;;9.57;;
70975;SDS011;58635;51.198;6.010;2023-05-07T04:35:15;11.70;;;9.85;;
70975;SDS011;58635;51.198;6.010;2023-05-07T04:37:41;10.57;;;8.85;;
70975;SDS011;58635;51.198;6.010;2023-05-07T04:40:07;12.00;;;9.65;;
70975;SDS011;58635;51.198;6.010;2023-05-07T04:42:32;12.70;;;9.52;;
70975;SDS011;58635;51.198;6.010;2023-05-07T04:44:58;15.63;;;10.13;;
70975;SDS011;58635;51.198;6.010;2023-05-07T04:47:23;13.10;;;9.15;;
70975;SDS011;58635;51.198;6.010;2023-05-07T04:49:49;12.30;;;9.35;;
70975;SDS011;58635;51.198;6.010;2023-05-07T04:52:14;15.05;;;10.43;;
70975;SDS011;58635;51.198;6.010;2023-05-07T04:54:40;16.27;;;9.50;;
70975;SDS011;58635;51.198;6.010;2023-05-07T04:57:05;15.35;;;10.27;;
70975;SDS011;58635;51.198;6.010;2023-05-07T04:59:32;13.57;;;9.32;;
70975;SDS011;58635;51.198;6.010;2023-05-07T05:01:57;14.63;;;9.85;;
70975;SDS011;58635;51.198;6.010;2023-05-07T05:04:23;13.38;;;10.10;;
70975;SDS011;58635;51.198;6.010;2023-05-07T05:06:48;11.80;;;9.23;;
70975;SDS011;58635;51.198;6.010;2023-05-07T05:09:13;10.60;;;7.57;;
70975;SDS011;58635;51.198;6.010;2023-05-07T05:11:40;10.80;;;7.90;;
70975;SDS011;58635;51.198;6.010;2023-05-07T05:14:06;11.25;;;8.20;;
70975;SDS011;58635;51.198;6.010;2023-05-07T05:16:31;12.57;;;8.27;;
70975;SDS011;58635;51.198;6.010;2023-05-07T05:18:57;16.10;;;10.30;;
70975;SDS011;58635;51.198;6.010;2023-05-07T05:21:22;15.88;;;10.38;;
70975;SDS011;58635;51.198;6.010;2023-05-07T05:23:48;12.23;;;9.02;;
70975;SDS011;58635;51.198;6.010;2023-05-07T05:26:13;14.98;;;8.73;;
70975;SDS011;58635;51.198;6.010;2023-05-07T05:28:38;12.52;;;7.45;;
70975;SDS011;58635;51.198;6.010;2023-05-07T05:31:04;12.20;;;8.15;;
70975;SDS011;58635;51.198;6.010;2023-05-07T05:33:30;13.85;;;9.30;;
70975;SDS011;58635;51.198;6.010;2023-05-07T05:35:55;14.02;;;8.88;;
70975;SDS011;58635;51.198;6.010;2023-05-07T05:38:21;13.25;;;8.35;;
70975;SDS011;58635;51.198;6.010;2023-05-07T05:40:47;10.05;;;7.40;;
70975;SDS011;58635;51.198;6.010;2023-05-07T05:43:13;16.75;;;8.23;;
70975;SDS011;58635;51.198;6.010;2023-05-07T05:45:39;14.23;;;7.72;;
70975;SDS011;58635;51.198;6.010;2023-05-07T05:48:05;11.48;;;8.15;;
70975;SDS011;58635;51.198;6.010;2023-05-07T05:50:30;10.40;;;7.15;;
70975;SDS011;58635;51.198;6.010;2023-05-07T05:52:56;10.90;;;7.65;;
70975;SDS011;58635;51.198;6.010;2023-05-07T05:55:21;14.82;;;8.40;;
70975;SDS011;58635;51.198;6.010;2023-05-07T05:57:47;12.50;;;8.63;;
70975;SDS011;58635;51.198;6.010;2023-05-07T06:00:13;13.52;;;7.82;;
70975;SDS011;58635;51.198;6.010;2023-05-07T06:02:38;12.57;;;8.07;;
70975;SDS011;58635;51.198;6.010;2023-05-07T06:05:04;12.95;;;8.68;;
70975;SDS011;58635;51.198;6.010;2023-05-07T06:07:30;11.45;;;8.10;;
70975;SDS011;58635;51.198;6.010;2023-05-07T06:09:55;10.52;;;7.05;;
70975;SDS011;58635;51.198;6.010;2023-05-07T06:12:21;10.40;;;7.40;;
70975;SDS011;58635;51.198;6.010;2023-05-07T06:14:46;10.25;;;7.25;;
70975;SDS011;58635;51.198;6.010;2023-05-07T06:17:12;11.80;;;7.47;;
70975;SDS011;58635;51.198;6.010;2023-05-07T06:19:37;11.02;;;7.43;;
70975;SDS011;58635;51.198;6.010;2023-05-07T06:22:03;10.60;;;7.40;;
70975;SDS011;58635;51.198;6.010;2023-05-07T06:24:28;11.68;;;7.70;;
70975;SDS011;58635;51.198;6.010;2023-05-07T06:26:54;14.15;;;7.60;;
70975;SDS011;58635;51.198;6.010;2023-05-07T06:29:19;11.70;;;8.00;;
70975;SDS011;58635;51.198;6.010;2023-05-07T06:31:45;10.40;;;7.60;;
70975;SDS011;58635;51.198;6.010;2023-05-07T06:34:10;12.88;;;7.88;;
70975;SDS011;58635;51.198;6.010;2023-05-07T06:36:39;10.35;;;7.72;;
70975;SDS011;58635;51.198;6.010;2023-05-07T06:39:05;9.27;;;6.82;;
70975;SDS011;58635;51.198;6.010;2023-05-07T06:41:30;11.68;;;8.98;;
70975;SDS011;58635;51.198;6.010;2023-05-07T06:43:56;12.88;;;8.05;;
70975;SDS011;58635;51.198;6.010;2023-05-07T06:46:21;12.32;;;7.38;;
70975;SDS011;58635;51.198;6.010;2023-05-07T06:48:46;11.27;;;7.30;;
70975;SDS011;58635;51.198;6.010;2023-05-07T06:51:12;12.20;;;7.82;;
70975;SDS011;58635;51.198;6.010;2023-05-07T06:53:37;10.95;;;6.85;;
70975;SDS011;58635;51.198;6.010;2023-05-07T06:56:03;11.27;;;6.63;;
70975;SDS011;58635;51.198;6.010;2023-05-07T06:58:29;12.52;;;6.57;;
70975;SDS011;58635;51.198;6.010;2023-05-07T07:00:55;9.30;;;6.45;;
70975;SDS011;58635;51.198;6.010;2023-05-07T07:03:20;11.88;;;6.57;;
70975;SDS011;58635;51.198;6.010;2023-05-07T07:05:45;10.65;;;6.97;;
70975;SDS011;58635;51.198;6.010;2023-05-07T07:08:11;13.05;;;6.93;;
70975;SDS011;58635;51.198;6.010;2023-05-07T07:10:36;11.40;;;6.82;;
70975;SDS011;58635;51.198;6.010;2023-05-07T07:13:02;9.32;;;6.72;;
70975;SDS011;58635;51.198;6.010;2023-05-07T07:15:27;11.00;;;7.00;;
70975;SDS011;58635;51.198;6.010;2023-05-07T07:17:53;10.38;;;6.85;;
70975;SDS011;58635;51.198;6.010;2023-05-07T07:20:18;9.07;;;5.68;;
70975;SDS011;58635;51.198;6.010;2023-05-07T07:22:43;9.98;;;5.80;;
70975;SDS011;58635;51.198;6.010;2023-05-07T07:25:09;10.07;;;6.05;;
70975;SDS011;58635;51.198;6.010;2023-05-07T07:27:34;11.25;;;6.57;;
70975;SDS011;58635;51.198;6.010;2023-05-07T07:30:00;10.35;;;6.45;;
70975;SDS011;58635;51.198;6.010;2023-05-07T07:32:26;9.00;;;5.90;;
70975;SDS011;58635;51.198;6.010;2023-05-07T07:34:51;11.10;;;6.70;;
70975;SDS011;58635;51.198;6.010;2023-05-07T07:37:17;8.80;;;6.15;;
70975;SDS011;58635;51.198;6.010;2023-05-07T07:39:42;10.30;;;6.47;;
70975;SDS011;58635;51.198;6.010;2023-05-07T07:42:07;10.68;;;5.78;;
70975;SDS011;58635;51.198;6.010;2023-05-07T07:44:33;9.18;;;5.68;;
70975;SDS011;58635;51.198;6.010;2023-05-07T07:46:58;9.90;;;6.75;;
70975;SDS011;58635;51.198;6.010;2023-05-07T07:49:24;10.32;;;6.22;;
70975;SDS011;58635;51.198;6.010;2023-05-07T07:51:49;9.15;;;6.70;;
70975;SDS011;58635;51.198;6.010;2023-05-07T07:54:16;8.45;;;6.18;;
70975;SDS011;58635;51.198;6.010;2023-05-07T07:56:41;8.88;;;6.45;;
70975;SDS011;58635;51.198;6.010;2023-05-07T07:59:07;10.65;;;7.43;;
70975;SDS011;58635;51.198;6.010;2023-05-07T08:01:32;11.98;;;7.50;;
70975;SDS011;58635;51.198;6.010;2023-05-07T08:03:58;11.35;;;7.15;;
70975;SDS011;58635;51.198;6.010;2023-05-07T08:06:24;11.35;;;6.85;;
70975;SDS011;58635;51.198;6.010;2023-05-07T08:08:50;10.95;;;7.00;;
70975;SDS011;58635;51.198;6.010;2023-05-07T08:11:16;10.55;;;6.95;;
70975;SDS011;58635;51.198;6.010;2023-05-07T08:13:42;9.93;;;6.35;;
70975;SDS011;58635;51.198;6.010;2023-05-07T08:16:07;12.40;;;7.30;;
70975;SDS011;58635;51.198;6.010;2023-05-07T08:18:33;9.25;;;6.32;;
70975;SDS011;58635;51.198;6.010;2023-05-07T08:20:58;10.00;;;6.45;;
70975;SDS011;58635;51.198;6.010;2023-05-07T08:23:23;9.85;;;6.10;;
70975;SDS011;58635;51.198;6.010;2023-05-07T08:25:49;8.93;;;5.60;;
70975;SDS011;58635;51.198;6.010;2023-05-07T08:28:14;9.00;;;5.32;;
70975;SDS011;58635;51.198;6.010;2023-05-07T08:30:40;9.73;;;5.60;;
70975;SDS011;58635;51.198;6.010;2023-05-07T08:33:06;8.13;;;4.65;;
70975;SDS011;58635;51.198;6.010;2023-05-07T08:35:33;7.97;;;4.65;;
70975;SDS011;58635;51.198;6.010;2023-05-07T08:37:58;9.18;;;4.35;;
70975;SDS011;58635;51.198;6.010;2023-05-07T08:40:24;7.70;;;4.10;;
70975;SDS011;58635;51.198;6.010;2023-05-07T08:42:52;6.38;;;3.90;;
70975;SDS011;58635;51.198;6.010;2023-05-07T08:45:19;6.70;;;4.32;;
70975;SDS011;58635;51.198;6.010;2023-05-07T08:47:50;7.07;;;4.13;;
70975;SDS011;58635;51.198;6.010;2023-05-07T08:50:16;8.93;;;4.13;;
70975;SDS011;58635;51.198;6.010;2023-05-07T08:55:37;7.05;;;3.70;;
70975;SDS011;58635;51.198;6.010;2023-05-07T08:58:04;5.53;;;3.70;;
70975;SDS011;58635;51.198;6.010;2023-05-07T09:00:29;7.70;;;3.28;;
70975;SDS011;58635;51.198;6.010;2023-05-07T09:02:55;5.00;;;2.70;;
70975;SDS011;58635;51.198;6.010;2023-05-07T09:05:21;8.40;;;3.85;;
70975;SDS011;58635;51.198;6.010;2023-05-07T09:07:46;5.40;;;3.10;;
70975;SDS011;58635;51.198;6.010;2023-05-07T09:10:13;5.35;;;3.17;;
70975;SDS011;58635;51.198;6.010;2023-05-07T09:12:39;6.18;;;3.55;;
70975;SDS011;58635;51.198;6.010;2023-05-07T09:15:05;5.88;;;3.15;;
70975;SDS011;58635;51.198;6.010;2023-05-07T09:17:31;4.32;;;2.65;;
70975;SDS011;58635;51.198;6.010;2023-05-07T09:20:01;5.20;;;2.90;;
70975;SDS011;58635;51.198;6.010;2023-05-07T09:22:33;7.90;;;2.70;;
70975;SDS011;58635;51.198;6.010;2023-05-07T09:25:45;5.22;;;2.35;;
70975;SDS011;58635;51.198;6.010;2023-05-07T09:27:55;4.57;;;2.35;;
70975;SDS011;58635;51.198;6.010;2023-05-07T09:30:21;5.28;;;2.08;;
70975;SDS011;58635;51.198;6.010;2023-05-07T09:32:46;4.85;;;2.20;;
70975;SDS011;58635;51.198;6.010;2023-05-07T09:35:15;5.15;;;2.42;;
70975;SDS011;58635;51.198;6.010;2023-05-07T09:37:46;6.63;;;2.53;;
70975;SDS011;58635;51.198;6.010;2023-05-07T09:40:22;7.15;;;2.35;;
70975;SDS011;58635;51.198;6.010;2023-05-07T09:42:48;4.45;;;2.05;;
70975;SDS011;58635;51.198;6.010;2023-05-07T09:45:15;3.83;;;2.28;;
70975;SDS011;58635;51.198;6.010;2023-05-07T09:47:42;6.00;;;2.08;;
70975;SDS011;58635;51.198;6.010;2023-05-07T09:50:11;5.22;;;2.00;;
70975;SDS011;58635;51.198;6.010;2023-05-07T09:52:38;5.35;;;2.20;;
70975;SDS011;58635;51.198;6.010;2023-05-07T09:55:06;3.67;;;2.00;;
70975;SDS011;58635;51.198;6.010;2023-05-07T09:57:33;4.28;;;1.88;;
70975;SDS011;58635;51.198;6.010;2023-05-07T09:59:59;5.95;;;1.98;;
70975;SDS011;58635;51.198;6.010;2023-05-07T10:02:29;4.03;;;2.13;;
70975;SDS011;58635;51.198;6.010;2023-05-07T10:04:56;5.65;;;1.90;;
70975;SDS011;58635;51.198;6.010;2023-05-07T10:07:25;5.65;;;1.92;;
70975;SDS011;58635;51.198;6.010;2023-05-07T10:09:51;4.60;;;1.70;;
70975;SDS011;58635;51.198;6.010;2023-05-07T10:12:17;4.72;;;2.08;;
70975;SDS011;58635;51.198;6.010;2023-05-07T10:14:44;6.68;;;1.90;;
70975;SDS011;58635;51.198;6.010;2023-05-07T10:17:11;3.63;;;1.88;;
70975;SDS011;58635;51.198;6.010;2023-05-07T10:19:37;3.33;;;1.58;;
70975;SDS011;58635;51.198;6.010;2023-05-07T10:22:04;3.40;;;1.90;;
70975;SDS011;58635;51.198;6.010;2023-05-07T10:24:34;3.38;;;1.40;;
70975;SDS011;58635;51.198;6.010;2023-05-07T10:27:02;5.60;;;1.80;;
70975;SDS011;58635;51.198;6.010;2023-05-07T10:29:37;4.30;;;1.98;;
70975;SDS011;58635;51.198;6.010;2023-05-07T10:34:56;3.53;;;1.65;;
70975;SDS011;58635;51.198;6.010;2023-05-07T10:37:25;4.72;;;1.80;;
70975;SDS011;58635;51.198;6.010;2023-05-07T10:39:51;4.82;;;1.85;;
70975;SDS011;58635;51.198;6.010;2023-05-07T10:42:17;3.58;;;1.73;;
70975;SDS011;58635;51.198;6.010;2023-05-07T10:44:42;3.50;;;1.67;;
70975;SDS011;58635;51.198;6.010;2023-05-07T10:47:09;4.60;;;1.70;;
70975;SDS011;58635;51.198;6.010;2023-05-07T10:52:20;3.58;;;1.77;;
70975;SDS011;58635;51.198;6.010;2023-05-07T10:54:48;3.25;;;1.58;;
70975;SDS011;58635;51.198;6.010;2023-05-07T10:57:43;2.97;;;1.23;;
70975;SDS011;58635;51.198;6.010;2023-05-07T11:05:25;4.35;;;1.58;;
70975;SDS011;58635;51.198;6.010;2023-05-07T11:07:59;2.60;;;1.50;;
70975;SDS011;58635;51.198;6.010;2023-05-07T11:10:47;4.35;;;1.60;;
70975;SDS011;58635;51.198;6.010;2023-05-07T11:13:14;3.30;;;1.63;;
70975;SDS011;58635;51.198;6.010;2023-05-07T11:15:41;2.65;;;1.20;;
70975;SDS011;58635;51.198;6.010;2023-05-07T11:18:09;3.17;;;1.60;;
70975;SDS011;58635;51.198;6.010;2023-05-07T11:26:05;2.67;;;1.50;;
70975;SDS011;58635;51.198;6.010;2023-05-07T11:28:41;4.10;;;1.50;;
70975;SDS011;58635;51.198;6.010;2023-05-07T11:31:07;6.05;;;2.08;;
70975;SDS011;58635;51.198;6.010;2023-05-07T11:33:34;3.80;;;1.80;;
70975;SDS011;58635;51.198;6.010;2023-05-07T11:36:01;3.28;;;1.70;;
70975;SDS011;58635;51.198;6.010;2023-05-07T11:38:28;3.78;;;1.60;;
70975;SDS011;58635;51.198;6.010;2023-05-07T11:40:55;4.22;;;1.70;;
70975;SDS011;58635;51.198;6.010;2023-05-07T11:43:23;5.22;;;1.60;;
70975;SDS011;58635;51.198;6.010;2023-05-07T11:45:49;3.70;;;1.75;;
70975;SDS011;58635;51.198;6.010;2023-05-07T11:48:15;4.47;;;1.92;;
70975;SDS011;58635;51.198;6.010;2023-05-07T11:50:50;4.00;;;2.13;;
70975;SDS011;58635;51.198;6.010;2023-05-07T11:53:25;3.13;;;1.63;;
70975;SDS011;58635;51.198;6.010;2023-05-07T11:55:55;8.57;;;1.80;;
70975;SDS011;58635;51.198;6.010;2023-05-07T11:58:21;4.38;;;1.60;;
70975;SDS011;58635;51.198;6.010;2023-05-07T12:00:51;3.58;;;1.60;;
70975;SDS011;58635;51.198;6.010;2023-05-07T12:03:18;3.33;;;1.65;;
70975;SDS011;58635;51.198;6.010;2023-05-07T12:05:44;3.45;;;1.67;;
70975;SDS011;58635;51.198;6.010;2023-05-07T12:08:19;2.50;;;1.35;;
70975;SDS011;58635;51.198;6.010;2023-05-07T12:10:47;2.58;;;1.60;;
70975;SDS011;58635;51.198;6.010;2023-05-07T12:13:24;3.53;;;1.70;;
70975;SDS011;58635;51.198;6.010;2023-05-07T12:15:51;3.92;;;1.80;;
70975;SDS011;58635;51.198;6.010;2023-05-07T12:18:23;4.07;;;1.80;;
70975;SDS011;58635;51.198;6.010;2023-05-07T12:20:49;4.65;;;1.98;;
70975;SDS011;58635;51.198;6.010;2023-05-07T12:23:15;3.97;;;1.52;;
70975;SDS011;58635;51.198;6.010;2023-05-07T12:25:41;5.35;;;2.00;;
70975;SDS011;58635;51.198;6.010;2023-05-07T12:28:15;4.25;;;1.90;;
70975;SDS011;58635;51.198;6.010;2023-05-07T12:30:45;3.88;;;1.70;;
70975;SDS011;58635;51.198;6.010;2023-05-07T12:33:11;3.42;;;1.65;;
70975;SDS011;58635;51.198;6.010;2023-05-07T12:35:41;4.20;;;1.75;;
70975;SDS011;58635;51.198;6.010;2023-05-07T12:38:09;5.22;;;1.73;;
70975;SDS011;58635;51.198;6.010;2023-05-07T12:40:41;3.20;;;1.60;;
70975;SDS011;58635;51.198;6.010;2023-05-07T12:43:14;3.45;;;1.50;;
70975;SDS011;58635;51.198;6.010;2023-05-07T12:45:50;4.63;;;1.77;;
70975;SDS011;58635;51.198;6.010;2023-05-07T12:48:16;2.10;;;1.40;;
70975;SDS011;58635;51.198;6.010;2023-05-07T12:50:42;5.13;;;1.58;;
70975;SDS011;58635;51.198;6.010;2023-05-07T12:53:10;4.80;;;1.92;;
70975;SDS011;58635;51.198;6.010;2023-05-07T12:55:44;6.25;;;1.95;;
70975;SDS011;58635;51.198;6.010;2023-05-07T13:00:52;5.20;;;2.05;;
70975;SDS011;58635;51.198;6.010;2023-05-07T13:03:21;3.30;;;1.80;;
70975;SDS011;58635;51.198;6.010;2023-05-07T13:08:49;2.88;;;1.40;;
70975;SDS011;58635;51.198;6.010;2023-05-07T13:11:09;2.45;;;1.42;;
70975;SDS011;58635;51.198;6.010;2023-05-07T13:13:37;4.50;;;2.15;;
70975;SDS011;58635;51.198;6.010;2023-05-07T13:16:05;5.57;;;1.70;;
70975;SDS011;58635;51.198;6.010;2023-05-07T13:18:33;4.50;;;1.60;;
70975;SDS011;58635;51.198;6.010;2023-05-07T13:20:58;4.15;;;1.75;;
70975;SDS011;58635;51.198;6.010;2023-05-07T13:23:25;3.20;;;1.75;;
70975;SDS011;58635;51.198;6.010;2023-05-07T13:25:51;3.95;;;1.77;;
70975;SDS011;58635;51.198;6.010;2023-05-07T13:28:19;3.95;;;1.90;;
70975;SDS011;58635;51.198;6.010;2023-05-07T13:30:45;5.03;;;1.90;;
70975;SDS011;58635;51.198;6.010;2023-05-07T13:33:11;3.88;;;1.73;;
70975;SDS011;58635;51.198;6.010;2023-05-07T13:35:37;3.70;;;1.70;;
70975;SDS011;58635;51.198;6.010;2023-05-07T13:38:02;4.57;;;1.90;;
70975;SDS011;58635;51.198;6.010;2023-05-07T13:40:28;5.18;;;1.90;;
70975;SDS011;58635;51.198;6.010;2023-05-07T13:42:53;5.50;;;2.45;;
70975;SDS011;58635;51.198;6.010;2023-05-07T13:45:19;4.28;;;2.15;;
70975;SDS011;58635;51.198;6.010;2023-05-07T13:47:45;6.68;;;2.53;;
70975;SDS011;58635;51.198;6.010;2023-05-07T13:50:11;5.30;;;2.65;;
70975;SDS011;58635;51.198;6.010;2023-05-07T13:52:41;5.97;;;2.80;;
70975;SDS011;58635;51.198;6.010;2023-05-07T13:55:08;4.43;;;2.40;;
70975;SDS011;58635;51.198;6.010;2023-05-07T13:57:34;4.50;;;2.20;;
70975;SDS011;58635;51.198;6.010;2023-05-07T14:00:00;4.35;;;2.13;;
70975;SDS011;58635;51.198;6.010;2023-05-07T14:02:25;4.15;;;2.13;;
70975;SDS011;58635;51.198;6.010;2023-05-07T14:04:51;3.95;;;1.95;;
70975;SDS011;58635;51.198;6.010;2023-05-07T14:07:16;3.75;;;1.95;;
70975;SDS011;58635;51.198;6.010;2023-05-07T14:09:42;4.38;;;1.98;;
70975;SDS011;58635;51.198;6.010;2023-05-07T14:12:07;3.22;;;1.80;;
70975;SDS011;58635;51.198;6.010;2023-05-07T14:14:32;3.92;;;1.88;;
70975;SDS011;58635;51.198;6.010;2023-05-07T14:16:58;2.75;;;1.50;;
70975;SDS011;58635;51.198;6.010;2023-05-07T14:19:23;5.18;;;1.88;;
70975;SDS011;58635;51.198;6.010;2023-05-07T14:21:48;5.45;;;1.85;;
70975;SDS011;58635;51.198;6.010;2023-05-07T14:24:14;3.55;;;1.65;;
70975;SDS011;58635;51.198;6.010;2023-05-07T14:26:39;5.65;;;2.10;;
70975;SDS011;58635;51.198;6.010;2023-05-07T14:29:05;4.80;;;1.80;;
70975;SDS011;58635;51.198;6.010;2023-05-07T14:31:30;4.57;;;1.70;;
70975;SDS011;58635;51.198;6.010;2023-05-07T14:33:56;4.80;;;2.33;;
70975;SDS011;58635;51.198;6.010;2023-05-07T14:36:23;3.75;;;1.83;;
70975;SDS011;58635;51.198;6.010;2023-05-07T14:38:51;5.45;;;1.90;;
70975;SDS011;58635;51.198;6.010;2023-05-07T14:41:18;2.72;;;1.63;;
70975;SDS011;58635;51.198;6.010;2023-05-07T14:43:46;3.88;;;1.70;;
70975;SDS011;58635;51.198;6.010;2023-05-07T14:46:15;3.00;;;1.58;;
70975;SDS011;58635;51.198;6.010;2023-05-07T14:48:47;4.47;;;2.05;;
70975;SDS011;58635;51.198;6.010;2023-05-07T14:51:13;2.80;;;1.63;;
70975;SDS011;58635;51.198;6.010;2023-05-07T14:53:40;4.00;;;1.65;;
70975;SDS011;58635;51.198;6.010;2023-05-07T14:56:06;3.55;;;1.42;;
70975;SDS011;58635;51.198;6.010;2023-05-07T14:58:32;3.88;;;1.40;;